createdAt,value
2019-03-21T00:02:04.799Z,60.30
2019-03-21T00:04:31.628Z,59.95
2019-03-21T00:06:58.574Z,59.92
2019-03-21T00:09:25.377Z,59.71
2019-03-21T00:11:56.375Z,60.62
2019-03-21T00:14:52.958Z,60.46
2019-03-21T00:17:27.886Z,61.40
2019-03-21T00:19:54.948Z,62.16
2019-03-21T00:22:23.767Z,61.24
2019-03-21T00:24:50.950Z,60.97
2019-03-21T00:27:18.169Z,61.74
2019-03-21T00:29:45.112Z,60.91
2019-03-21T00:32:11.951Z,60.86
2019-03-21T00:34:39.108Z,61.19
2019-03-21T00:37:06.105Z,61.80
2019-03-21T00:39:33.383Z,62.06
2019-03-21T00:42:00.749Z,62.49
2019-03-21T00:44:27.874Z,61.84
2019-03-21T00:46:54.762Z,61.45
2019-03-21T00:49:21.800Z,61.63
2019-03-21T00:51:51.558Z,62.22
2019-03-21T00:54:20.020Z,62.40
2019-03-21T00:56:47.512Z,62.79
2019-03-21T00:59:15.541Z,63.09
2019-03-21T01:01:44.066Z,63.63
2019-03-21T01:04:14.037Z,63.52
2019-03-21T01:06:43.874Z,63.53
2019-03-21T01:09:14.460Z,63.20
2019-03-21T01:11:43.643Z,63.36
2019-03-21T01:14:11.906Z,63.54
2019-03-21T01:16:39.790Z,63.19
2019-03-21T01:19:09.692Z,63.31
2019-03-21T01:21:37.184Z,62.58
2019-03-21T01:24:07.205Z,62.83
2019-03-21T01:26:34.875Z,62.17
2019-03-21T01:29:01.922Z,62.24
2019-03-21T01:31:30.346Z,62.63
2019-03-21T01:33:59.269Z,63.18
2019-03-21T01:36:26.808Z,62.72
2019-03-21T01:38:54.263Z,62.46
2019-03-21T01:41:22.355Z,62.53
2019-03-21T01:43:49.809Z,62.50
2019-03-21T01:46:23.808Z,62.49
2019-03-21T01:48:52.906Z,62.85
2019-03-21T01:51:21.321Z,62.47
2019-03-21T01:53:49.757Z,62.38
2019-03-21T01:56:19.338Z,62.76
2019-03-21T01:58:46.576Z,62.66
2019-03-21T02:01:14.471Z,62.75
2019-03-21T02:03:42.327Z,63.22
2019-03-21T02:06:11.107Z,62.78
2019-03-21T02:08:39.047Z,62.31
2019-03-21T02:11:08.432Z,62.09
2019-03-21T02:13:37.413Z,62.06
2019-03-21T02:16:06.429Z,62.88
2019-03-21T02:18:33.968Z,62.93
2019-03-21T02:21:01.747Z,62.68
2019-03-21T02:23:30.549Z,62.16
2019-03-21T02:25:58.439Z,61.95
2019-03-21T02:28:26.363Z,61.86
2019-03-21T02:30:53.759Z,61.67
2019-03-21T02:33:32.431Z,61.66
2019-03-21T02:36:04.990Z,62.29
2019-03-21T02:38:32.215Z,62.41
2019-03-21T02:41:10.231Z,62.15
2019-03-21T02:43:38.043Z,62.59
2019-03-21T02:46:07.176Z,62.67
2019-03-21T02:48:34.284Z,62.84
2019-03-21T02:51:03.965Z,62.59
2019-03-21T02:53:33.491Z,62.09
2019-03-21T02:56:04.223Z,61.31
2019-03-21T02:58:33.753Z,61.14
2019-03-21T03:01:03.937Z,61.17
2019-03-21T03:03:31.335Z,61.42
2019-03-21T03:05:58.646Z,61.27
2019-03-21T03:08:29.283Z,61.19
2019-03-21T03:11:01.037Z,61.41
2019-03-21T03:13:28.853Z,61.64
2019-03-21T03:15:56.184Z,61.40
2019-03-21T03:18:25.533Z,61.77
2019-03-21T03:20:54.444Z,61.55
2019-03-21T03:23:24.213Z,61.39
2019-03-21T03:25:52.476Z,61.16
2019-03-21T03:28:28.178Z,61.55
2019-03-21T03:30:58.076Z,61.50
2019-03-21T03:33:25.955Z,61.78
2019-03-21T03:35:54.885Z,61.84
2019-03-21T03:38:23.360Z,62.17
2019-03-21T03:41:02.539Z,61.80
2019-03-21T03:43:29.506Z,61.25
2019-03-21T03:45:56.429Z,60.75
2019-03-21T03:48:26.021Z,60.53
2019-03-21T03:50:53.229Z,60.34
2019-03-21T03:53:21.078Z,60.47
2019-03-21T03:55:48.366Z,60.40
2019-03-21T03:58:28.185Z,60.17
2019-03-21T04:00:56.494Z,60.39
2019-03-21T04:03:26.357Z,60.39
2019-03-21T04:05:53.463Z,60.44
2019-03-21T04:08:20.546Z,60.32
2019-03-21T04:10:53.726Z,59.97
2019-03-21T04:13:21.120Z,60.56
2019-03-21T04:15:52.998Z,60.58
2019-03-21T04:18:20.814Z,61.20
2019-03-21T04:21:04.892Z,61.81
2019-03-21T04:23:31.914Z,62.04
2019-03-21T04:26:07.138Z,62.16
2019-03-21T04:28:34.252Z,62.66
2019-03-21T04:31:01.345Z,62.94
2019-03-21T04:33:28.734Z,63.10
2019-03-21T04:35:56.136Z,63.24
2019-03-21T04:38:23.238Z,63.40
2019-03-21T04:40:50.419Z,63.37
2019-03-21T04:43:17.634Z,63.73
2019-03-21T04:45:45.968Z,63.46
2019-03-21T04:48:12.933Z,63.40
2019-03-21T04:50:41.143Z,64.13
2019-03-21T04:53:08.558Z,65.36
2019-03-21T04:55:35.768Z,65.02
2019-03-21T04:58:02.781Z,64.48
2019-03-21T05:00:55.112Z,63.83
2019-03-21T05:03:26.129Z,63.56
2019-03-21T05:05:53.372Z,63.63
2019-03-21T05:08:21.673Z,63.95
2019-03-21T05:10:48.847Z,64.23
2019-03-21T05:13:16.419Z,64.74
2019-03-21T05:15:49.348Z,64.80
2019-03-21T05:18:43.284Z,64.15
2019-03-21T05:21:17.548Z,63.41
2019-03-21T05:23:44.548Z,62.90
2019-03-21T05:26:14.345Z,62.56
2019-03-21T05:28:41.547Z,62.59
2019-03-21T05:31:14.247Z,62.77
2019-03-21T05:33:42.007Z,63.01
2019-03-21T05:36:09.204Z,62.95
2019-03-21T05:38:36.516Z,63.29
2019-03-21T05:41:03.754Z,63.62
2019-03-21T05:43:47.742Z,63.17
2019-03-21T05:46:25.978Z,63.11
2019-03-21T05:48:47.700Z,63.16
2019-03-21T05:51:16.943Z,62.91
2019-03-21T05:53:44.615Z,62.63
2019-03-21T05:56:11.709Z,62.74
2019-03-21T05:58:39.007Z,62.97
2019-03-21T06:01:09.482Z,62.84
2019-03-21T06:03:45.607Z,63.03
2019-03-21T06:06:39.362Z,63.09
2019-03-21T06:09:12.426Z,62.86
2019-03-21T06:11:44.657Z,62.65
2019-03-21T06:14:12.669Z,62.90
2019-03-21T06:16:39.767Z,62.97
2019-03-21T06:19:24.791Z,63.14
2019-03-21T06:22:03.475Z,63.34
2019-03-21T06:25:21.926Z,63.36
2019-03-21T06:27:49.267Z,62.85
2019-03-21T06:30:17.964Z,62.87
2019-03-21T06:32:45.567Z,63.47
2019-03-21T06:35:19.386Z,64.35
2019-03-21T06:37:46.402Z,64.49
2019-03-21T06:40:13.499Z,64.04
2019-03-21T06:42:40.305Z,63.44
2019-03-21T06:45:08.154Z,62.73
2019-03-21T06:47:35.094Z,62.96
2019-03-21T06:50:05.148Z,62.88
2019-03-21T06:52:33.811Z,62.56
2019-03-21T06:55:05.016Z,62.22
2019-03-21T06:57:32.182Z,62.14
2019-03-21T06:59:59.331Z,62.00
2019-03-21T07:02:26.131Z,61.69
2019-03-21T07:04:53.673Z,61.83
2019-03-21T07:07:20.549Z,61.66
2019-03-21T07:09:47.382Z,61.38
2019-03-21T07:12:14.285Z,61.64
2019-03-21T07:14:41.411Z,61.76
2019-03-21T07:17:08.479Z,61.42
2019-03-21T07:19:35.348Z,61.23
2019-03-21T07:22:02.396Z,60.94
2019-03-21T07:24:29.368Z,60.83
2019-03-21T07:26:56.241Z,60.53
2019-03-21T07:29:23.354Z,60.18
2019-03-21T07:31:50.579Z,59.66
2019-03-21T07:34:17.335Z,59.41
2019-03-21T07:36:44.396Z,59.36
2019-03-21T07:39:11.585Z,59.29
2019-03-21T07:41:38.577Z,59.19
2019-03-21T07:44:05.879Z,58.58
2019-03-21T07:46:32.886Z,58.16
2019-03-21T07:48:59.699Z,57.95
2019-03-21T07:51:26.917Z,57.78
2019-03-21T07:53:54.379Z,57.54
2019-03-21T07:56:21.207Z,56.92
2019-03-21T07:58:48.082Z,56.38
2019-03-21T08:01:15.259Z,55.85
2019-03-21T08:03:42.020Z,55.40
2019-03-21T08:06:09.299Z,54.92
2019-03-21T08:08:36.117Z,54.25
2019-03-21T08:11:05.028Z,53.92
2019-03-21T08:13:32.167Z,53.54
2019-03-21T08:15:59.156Z,53.00
2019-03-21T08:18:26.231Z,52.51
2019-03-21T08:20:58.505Z,51.81
2019-03-21T08:23:22.334Z,50.71
2019-03-21T08:25:49.257Z,49.80
2019-03-21T08:28:16.578Z,49.18
2019-03-21T08:31:07.976Z,48.66
2019-03-21T08:33:35.478Z,48.36
2019-03-21T08:36:02.712Z,47.48
2019-03-21T08:38:29.499Z,45.82
2019-03-21T08:40:56.304Z,45.17
2019-03-21T08:43:23.169Z,44.72
2019-03-21T08:45:50.289Z,42.97
2019-03-21T08:48:17.058Z,43.80
2019-03-21T08:50:43.983Z,42.98
2019-03-21T08:53:11.072Z,42.28
2019-03-21T08:55:37.887Z,41.90
2019-03-21T08:58:07.261Z,40.85
2019-03-21T09:00:34.694Z,40.61
2019-03-21T09:03:01.914Z,39.91
2019-03-21T09:05:29.100Z,39.63
2019-03-21T09:07:57.499Z,39.27
2019-03-21T09:10:24.513Z,38.86
2019-03-21T09:12:55.463Z,38.20
2019-03-21T09:15:22.505Z,37.81
2019-03-21T09:17:50.751Z,37.46
2019-03-21T09:20:19.031Z,36.79
2019-03-21T09:22:46.019Z,36.36
2019-03-21T09:25:15.320Z,36.44
2019-03-21T09:27:44.195Z,35.95
2019-03-21T09:30:13.876Z,35.68
2019-03-21T09:32:41.130Z,34.64
2019-03-21T09:35:12.356Z,34.46
2019-03-21T09:37:38.819Z,34.17
2019-03-21T09:40:12.237Z,34.10
2019-03-21T09:42:39.306Z,33.70
2019-03-21T09:45:08.043Z,33.59
2019-03-21T09:47:35.498Z,33.16
2019-03-21T09:50:06.043Z,32.81
2019-03-21T09:52:33.120Z,31.74
2019-03-21T09:55:07.247Z,32.11
2019-03-21T09:57:35.704Z,31.92
2019-03-21T10:00:09.221Z,31.70
2019-03-21T10:02:39.857Z,31.67
2019-03-21T10:05:07.265Z,31.52
2019-03-21T10:07:36.521Z,31.55
2019-03-21T10:10:05.686Z,31.50
2019-03-21T10:12:34.251Z,31.36
2019-03-21T10:15:06.978Z,31.49
2019-03-21T10:17:34.036Z,31.26
2019-03-21T10:20:01.483Z,30.74
2019-03-21T10:22:28.282Z,30.30
2019-03-21T10:24:55.412Z,30.21
2019-03-21T10:27:22.944Z,29.99
2019-03-21T10:29:49.740Z,29.89
2019-03-21T10:32:16.757Z,29.68
2019-03-21T10:34:43.974Z,29.33
2019-03-21T10:37:10.827Z,29.20
2019-03-21T10:39:37.595Z,28.87
2019-03-21T10:42:04.758Z,28.87
2019-03-21T10:44:31.547Z,28.80
2019-03-21T10:46:58.515Z,28.52
2019-03-21T10:49:25.434Z,28.14
2019-03-21T10:51:55.153Z,28.10
2019-03-21T10:54:23.668Z,27.94
2019-03-21T10:56:50.840Z,27.70
2019-03-21T10:59:19.910Z,27.58
2019-03-21T11:01:47.320Z,27.68
2019-03-21T11:04:14.370Z,27.50
2019-03-21T11:06:41.286Z,27.51
2019-03-21T11:09:08.416Z,27.44
2019-03-21T11:11:36.273Z,26.95
2019-03-21T11:14:03.263Z,26.52
2019-03-21T11:16:31.523Z,26.31
2019-03-21T11:18:58.965Z,26.19
2019-03-21T11:21:26.066Z,25.65
2019-03-21T11:23:53.131Z,25.65
2019-03-21T11:26:20.190Z,25.19
2019-03-21T11:28:47.318Z,24.44
2019-03-21T11:31:14.231Z,24.36
2019-03-21T11:33:43.020Z,24.31
2019-03-21T11:36:10.082Z,24.03
2019-03-21T11:38:37.200Z,23.62
2019-03-21T11:41:09.787Z,23.10
2019-03-21T11:43:36.758Z,22.60
2019-03-21T11:46:04.419Z,22.85
2019-03-21T11:48:31.684Z,22.15
2019-03-21T11:50:59.540Z,21.52
2019-03-21T11:53:27.344Z,21.21
2019-03-21T11:55:54.253Z,21.18
2019-03-21T11:58:24.031Z,21.15
2019-03-21T12:00:51.220Z,20.83
2019-03-21T12:03:18.517Z,20.90
2019-03-21T12:05:46.274Z,20.13
2019-03-21T12:08:13.898Z,20.11
2019-03-21T12:10:40.860Z,20.24
2019-03-21T12:13:08.050Z,20.44
2019-03-21T12:15:35.426Z,20.37
2019-03-21T12:18:04.539Z,20.36
2019-03-21T12:20:35.127Z,20.04
2019-03-21T12:23:11.165Z,19.92
2019-03-21T12:25:42.260Z,20.07
2019-03-21T12:28:09.668Z,20.05
2019-03-21T12:30:40.759Z,19.96
2019-03-21T12:33:11.578Z,19.57
2019-03-21T12:35:38.849Z,19.62
2019-03-21T12:38:11.644Z,19.50
2019-03-21T12:40:38.639Z,19.24
2019-03-21T12:43:08.497Z,19.40
2019-03-21T12:45:37.397Z,19.23
2019-03-21T12:48:06.284Z,18.99
2019-03-21T12:50:33.436Z,18.96
2019-03-21T12:53:03.257Z,18.65
2019-03-21T12:55:36.202Z,18.67
2019-03-21T12:58:03.685Z,18.61
2019-03-21T13:00:40.898Z,15.96
2019-03-21T13:03:10.069Z,17.98
2019-03-21T13:05:37.388Z,18.27
2019-03-21T13:08:05.312Z,17.91
2019-03-21T13:10:33.737Z,17.88
2019-03-21T13:13:00.920Z,17.76
2019-03-21T13:15:31.585Z,16.97
2019-03-21T13:18:00.432Z,16.90
2019-03-21T13:20:27.759Z,16.54
2019-03-21T13:22:54.809Z,16.44
2019-03-21T13:25:22.096Z,16.06
2019-03-21T13:27:49.036Z,16.33
2019-03-21T13:30:16.784Z,16.24
2019-03-21T13:32:43.748Z,15.46
2019-03-21T13:35:11.251Z,15.37
2019-03-21T13:37:38.110Z,14.93
2019-03-21T13:40:06.519Z,15.65
2019-03-21T13:42:33.634Z,15.66
2019-03-21T13:45:00.623Z,15.76
2019-03-21T13:47:27.660Z,15.47
2019-03-21T13:49:54.760Z,15.60
2019-03-21T13:52:23.325Z,16.00
2019-03-21T13:54:56.597Z,16.13
2019-03-21T13:57:23.480Z,16.00
2019-03-21T13:59:52.813Z,16.34
2019-03-21T14:02:20.319Z,16.74
2019-03-21T14:04:48.391Z,16.64
2019-03-21T14:07:15.642Z,16.75
2019-03-21T14:09:42.511Z,16.86
2019-03-21T14:12:10.710Z,17.09
2019-03-21T14:14:39.471Z,17.27
2019-03-21T14:17:06.354Z,17.31
2019-03-21T14:19:33.100Z,17.18
2019-03-21T14:22:03.919Z,17.31
2019-03-21T14:24:30.765Z,17.32
2019-03-21T14:26:57.547Z,16.73
2019-03-21T14:29:24.673Z,17.16
2019-03-21T14:31:51.989Z,17.37
2019-03-21T14:34:18.867Z,17.75
2019-03-21T14:36:48.738Z,17.70
2019-03-21T14:39:15.606Z,17.85
2019-03-21T14:41:42.376Z,18.26
2019-03-21T14:44:09.121Z,18.41
2019-03-21T14:46:36.895Z,18.81
2019-03-21T14:49:03.904Z,18.94
2019-03-21T14:51:30.659Z,18.93
2019-03-21T14:53:57.706Z,19.50
2019-03-21T14:56:27.999Z,19.77
2019-03-21T14:58:55.193Z,20.46
2019-03-21T15:01:24.087Z,20.75
2019-03-21T15:03:51.120Z,20.95
2019-03-21T15:06:18.267Z,21.46
2019-03-21T15:08:45.840Z,21.94
2019-03-21T15:11:17.182Z,22.03
2019-03-21T15:13:42.386Z,22.10
2019-03-21T15:16:09.159Z,22.12
2019-03-21T15:18:36.135Z,22.17
2019-03-21T15:21:03.134Z,22.56
2019-03-21T15:23:40.170Z,23.40
2019-03-21T15:25:59.056Z,23.54
2019-03-21T15:28:26.003Z,23.39
2019-03-21T15:30:52.764Z,23.34
2019-03-21T15:33:19.485Z,23.30
2019-03-21T15:35:46.226Z,23.44
2019-03-21T15:38:13.125Z,23.58
2019-03-21T15:40:40.370Z,23.53
2019-03-21T15:43:07.326Z,23.62
2019-03-21T15:45:34.506Z,23.87
2019-03-21T15:48:01.371Z,23.93
2019-03-21T15:50:37.064Z,24.13
2019-03-21T15:53:04.972Z,24.41
2019-03-21T15:55:32.097Z,24.53
2019-03-21T15:58:01.939Z,24.55
2019-03-21T16:00:34.958Z,24.62
2019-03-21T16:03:05.288Z,24.45
2019-03-21T16:05:32.269Z,24.43
2019-03-21T16:07:59.182Z,24.37
2019-03-21T16:10:26.170Z,24.54
2019-03-21T16:12:54.962Z,24.76
2019-03-21T16:15:21.829Z,24.73
2019-03-21T16:17:48.704Z,24.89
2019-03-21T16:20:19.036Z,25.10
2019-03-21T16:22:47.607Z,25.24
2019-03-21T16:25:15.275Z,25.29
2019-03-21T16:27:42.015Z,25.39
2019-03-21T16:30:11.806Z,25.46
2019-03-21T16:32:41.783Z,25.59
2019-03-21T16:35:10.353Z,25.58
2019-03-21T16:37:37.599Z,25.50
2019-03-21T16:40:13.482Z,25.68
2019-03-21T16:42:43.282Z,25.89
2019-03-21T16:45:14.324Z,25.92
2019-03-21T16:47:42.613Z,26.09
2019-03-21T16:50:17.491Z,26.32
2019-03-21T16:52:44.658Z,26.62
2019-03-21T16:55:13.122Z,26.83
2019-03-21T16:57:41.583Z,26.66
2019-03-21T17:00:17.473Z,26.30
2019-03-21T17:02:47.540Z,26.15
2019-03-21T17:05:16.475Z,26.15
2019-03-21T17:07:43.965Z,26.11
2019-03-21T17:10:16.597Z,26.21
2019-03-21T17:12:45.315Z,26.28
2019-03-21T17:15:13.517Z,26.37
2019-03-21T17:17:41.001Z,26.59
2019-03-21T17:20:11.371Z,26.77
2019-03-21T17:22:38.446Z,26.93
2019-03-21T17:25:07.693Z,27.10
2019-03-21T17:27:34.452Z,27.19
2019-03-21T17:30:01.563Z,27.45
2019-03-21T17:32:29.522Z,27.74
2019-03-21T17:34:56.640Z,28.14
2019-03-21T17:37:24.747Z,28.40
2019-03-21T17:39:51.571Z,29.40
2019-03-21T17:42:21.026Z,30.07
2019-03-21T17:44:48.382Z,30.33
2019-03-21T17:47:15.521Z,30.98
2019-03-21T17:49:46.515Z,31.60
2019-03-21T17:52:22.236Z,32.58
2019-03-21T17:54:51.587Z,33.31
2019-03-21T17:57:34.059Z,33.29
2019-03-21T17:59:53.817Z,33.61
2019-03-21T18:02:21.338Z,33.88
2019-03-21T18:04:48.271Z,34.45
2019-03-21T18:07:15.412Z,34.69
2019-03-21T18:09:42.359Z,35.12
2019-03-21T18:12:09.401Z,35.27
2019-03-21T18:14:36.644Z,35.73
2019-03-21T18:17:03.605Z,36.24
2019-03-21T18:19:33.184Z,36.37
2019-03-21T18:22:01.926Z,35.93
2019-03-21T18:24:28.851Z,35.95
2019-03-21T18:27:16.079Z,36.33
2019-03-21T18:29:44.985Z,36.43
2019-03-21T18:32:12.117Z,36.76
2019-03-21T18:34:39.017Z,36.80
2019-03-21T18:37:06.229Z,36.79
2019-03-21T18:39:33.112Z,36.82
2019-03-21T18:42:04.148Z,37.89
2019-03-21T18:44:31.435Z,38.27
2019-03-21T18:47:02.289Z,39.29
2019-03-21T18:49:31.848Z,39.93
2019-03-21T18:51:59.880Z,40.35
2019-03-21T18:54:27.141Z,40.41
2019-03-21T18:56:55.615Z,41.18
2019-03-21T18:59:22.742Z,40.93
2019-03-21T19:01:58.403Z,40.65
2019-03-21T19:04:19.545Z,40.65
2019-03-21T19:06:46.587Z,40.80
2019-03-21T19:09:14.200Z,40.50
2019-03-21T19:11:41.797Z,40.16
2019-03-21T19:14:09.472Z,40.62
2019-03-21T19:16:45.307Z,40.90
2019-03-21T19:19:12.106Z,41.68
2019-03-21T19:21:40.134Z,42.37
2019-03-21T19:24:14.099Z,43.12
2019-03-21T19:26:44.337Z,44.00
2019-03-21T19:29:58.658Z,43.68
2019-03-21T19:32:09.447Z,43.85
2019-03-21T19:35:16.411Z,45.04
2019-03-21T19:37:56.760Z,44.53
2019-03-21T19:40:33.769Z,44.88
2019-03-21T19:43:01.482Z,45.50
2019-03-21T19:45:28.786Z,45.29
2019-03-21T19:47:55.998Z,45.62
2019-03-21T19:50:23.423Z,45.06
2019-03-21T19:52:50.515Z,45.44
2019-03-21T19:55:25.833Z,44.88
2019-03-21T19:57:46.929Z,45.27
2019-03-21T20:00:21.368Z,45.72
2019-03-21T20:02:51.325Z,46.32
2019-03-21T20:05:18.401Z,46.95
2019-03-21T20:07:45.501Z,46.64
2019-03-21T20:10:17.143Z,47.18
2019-03-21T20:12:44.158Z,47.45
2019-03-21T20:15:14.614Z,47.98
2019-03-21T20:17:43.084Z,47.53
2019-03-21T20:20:16.397Z,47.95
2019-03-21T20:22:44.391Z,47.79
2019-03-21T20:25:12.226Z,47.96
2019-03-21T20:27:40.789Z,47.77
2019-03-21T20:30:16.101Z,48.16
2019-03-21T20:32:43.880Z,48.20
2019-03-21T20:35:20.692Z,48.90
2019-03-21T20:37:48.207Z,48.00
2019-03-21T20:40:18.496Z,49.49
2019-03-21T20:42:45.624Z,49.56
2019-03-21T20:45:18.257Z,49.11
2019-03-21T20:47:45.601Z,48.69
2019-03-21T20:50:13.711Z,48.44
2019-03-21T20:52:40.954Z,48.28
2019-03-21T20:55:10.608Z,48.44
2019-03-21T20:57:42.159Z,48.10
2019-03-21T21:00:23.266Z,48.60
2019-03-21T21:02:56.282Z,49.07
2019-03-21T21:05:25.275Z,49.71
2019-03-21T21:07:52.544Z,50.34
2019-03-21T21:10:19.676Z,50.20
2019-03-21T21:12:46.870Z,49.89
2019-03-21T21:15:16.438Z,50.34
2019-03-21T21:17:45.435Z,50.09
2019-03-21T21:20:16.972Z,50.65
2019-03-21T21:22:44.707Z,50.83
2019-03-21T21:25:12.477Z,51.61
2019-03-21T21:27:48.718Z,51.16
2019-03-21T21:30:23.724Z,50.72
2019-03-21T21:32:51.172Z,50.50
2019-03-21T21:35:18.157Z,50.28
2019-03-21T21:37:45.379Z,51.54
2019-03-21T21:40:15.781Z,51.60
2019-03-21T21:42:45.974Z,51.76
2019-03-21T21:45:17.208Z,51.95
2019-03-21T21:47:44.529Z,52.94
2019-03-21T21:50:15.078Z,54.15
2019-03-21T21:52:42.562Z,54.30
2019-03-21T21:55:10.177Z,53.75
2019-03-21T21:57:37.633Z,53.41
2019-03-21T22:00:18.154Z,53.11
2019-03-21T22:02:45.237Z,52.62
2019-03-21T22:05:12.911Z,52.63
2019-03-21T22:07:39.819Z,52.85
2019-03-21T22:10:08.151Z,52.94
2019-03-21T22:12:35.323Z,52.67
2019-03-21T22:15:08.492Z,53.11
2019-03-21T22:17:35.187Z,53.17
2019-03-21T22:20:06.091Z,54.87
2019-03-21T22:22:33.004Z,54.38
2019-03-21T22:24:59.854Z,53.89
2019-03-21T22:27:26.790Z,53.90
2019-03-21T22:30:23.489Z,54.81
2019-03-21T22:33:03.655Z,55.03
2019-03-21T22:35:50.873Z,54.36
2019-03-21T22:38:36.525Z,54.24
2019-03-21T22:44:31.153Z,54.35
2019-03-21T22:50:51.858Z,54.29
2019-03-21T22:53:18.945Z,54.73
2019-03-21T22:55:47.475Z,54.33
2019-03-21T22:58:17.463Z,54.27
2019-03-21T23:00:50.111Z,54.09
2019-03-21T23:03:17.511Z,54.04
2019-03-21T23:05:44.660Z,54.41
2019-03-21T23:08:12.135Z,54.48
2019-03-21T23:10:39.129Z,55.07
2019-03-21T23:13:06.433Z,55.48
2019-03-21T23:15:33.429Z,55.08
2019-03-21T23:18:00.505Z,54.77
2019-03-21T23:20:27.924Z,54.58
2019-03-21T23:22:55.151Z,54.21
2019-03-21T23:25:22.104Z,55.13
2019-03-21T23:27:48.957Z,55.33
2019-03-21T23:30:17.446Z,55.03
2019-03-21T23:32:44.670Z,55.05
2019-03-21T23:35:12.377Z,55.21
2019-03-21T23:37:41.485Z,55.09
2019-03-21T23:40:12.592Z,55.48
2019-03-21T23:42:39.758Z,55.53
2019-03-21T23:45:09.368Z,55.88
2019-03-21T23:47:36.727Z,56.23
2019-03-21T23:50:08.176Z,56.88
2019-03-21T23:52:35.320Z,57.38
2019-03-21T23:55:05.289Z,58.18
2019-03-21T23:57:37.595Z,57.71
